Time;durP1;ratioP1;P1;durP2;ratioP2;P2;SDS_P1;SDS_P2;PMS_P1;PMS_P2;Temp;Humidity;BMP_temperature;BMP_pressure;BME280_temperature;BME280_humidity;BME280_pressure;Samples;Min_cycle;Max_cycle;Signal;HPM_P1;HPM_P2
2023/10/08 00:00:49;;;;;;;;;7.80;5.20;;;;;19.08;65.90;100469.25;5098960;28;8836;-57
2023/10/08 00:03:17;;;;;;;;;7.00;6.00;;;;;19.07;65.44;100462.16;5098804;28;8857;-59
2023/10/08 00:05:46;;;;;;;;;7.00;6.60;;;;;19.07;65.45;100464.00;5097923;28;8952;-58
2023/10/08 00:08:16;;;;;;;;;6.40;6.20;;;;;19.06;65.39;100463.16;5099562;28;8814;-60
2023/10/08 00:10:45;;;;;;;;;4.80;4.80;;;;;19.05;65.73;100458.75;5098623;28;8957;-58
2023/10/08 00:13:12;;;;;;;;;6.60;6.00;;;;;19.06;65.86;100465.03;5106969;28;9461;-60
2023/10/08 00:15:41;;;;;;;;;7.00;7.00;;;;;19.03;65.84;100466.19;5100493;28;9444;-58
2023/10/08 00:18:11;;;;;;;;;6.40;6.00;;;;;19.02;66.04;100458.25;5098281;28;8829;-57
2023/10/08 00:20:54;;;;;;;;;8.60;8.20;;;;;18.99;65.64;100459.44;5096812;28;8841;-57
2023/10/08 00:23:25;;;;;;;;;6.00;6.00;;;;;18.99;65.29;100456.75;5097817;28;8836;-58
2023/10/08 00:25:54;;;;;;;;;5.60;4.00;;;;;18.99;65.51;100462.16;5098424;28;8837;-60
2023/10/08 00:28:22;;;;;;;;;3.60;3.60;;;;;18.99;65.61;100464.84;5097688;28;8865;-58
2023/10/08 00:30:53;;;;;;;;;6.60;6.60;;;;;19.02;65.56;100477.16;5098345;28;8884;-58
2023/10/08 00:33:23;;;;;;;;;7.00;4.40;;;;;19.02;65.66;100469.03;5099580;28;8850;-58
2023/10/08 00:35:52;;;;;;;;;8.20;6.60;;;;;19.02;65.57;100479.84;5098963;28;8833;-59
2023/10/08 00:38:21;;;;;;;;;4.40;4.00;;;;;19.00;65.88;100477.34;5098336;28;8829;-58
2023/10/08 00:40:49;;;;;;;;;5.20;5.20;;;;;19.00;65.66;100481.88;5098562;28;8919;-60
2023/10/08 00:43:17;;;;;;;;;7.00;6.40;;;;;18.98;65.81;100492.00;5097680;28;8818;-58
2023/10/08 00:45:50;;;;;;;;;4.80;4.00;;;;;18.97;66.07;100490.31;5097603;28;8830;-60
2023/10/08 00:48:22;;;;;;;;;6.00;4.00;;;;;18.95;65.73;100493.16;5097833;28;8848;-60
2023/10/08 00:50:50;;;;;;;;;6.00;5.20;;;;;18.93;65.37;100497.88;5097779;28;8834;-58
2023/10/08 00:53:21;;;;;;;;;6.80;6.20;;;;;18.93;65.87;100499.72;5097379;28;8860;-59
2023/10/08 00:55:53;;;;;;;;;6.00;4.40;;;;;18.93;65.97;100494.31;5097494;28;8852;-59
2023/10/08 00:58:24;;;;;;;;;6.40;6.40;;;;;18.91;65.40;100497.16;5097995;28;8818;-58
2023/10/08 01:00:56;;;;;;;;;6.60;6.40;;;;;18.89;66.24;100492.97;5097352;28;8829;-59
2023/10/08 01:03:26;;;;;;;;;6.40;4.80;;;;;18.85;66.11;100502.38;5097731;28;8899;-59
2023/10/08 01:05:54;;;;;;;;;4.40;4.40;;;;;18.82;66.06;100497.31;5096392;28;8915;-60
2023/10/08 01:08:35;;;;;;;;;3.40;3.40;;;;;18.79;66.29;100490.38;5096835;28;8833;-58
2023/10/08 01:11:03;;;;;;;;;12.60;7.00;;;;;18.78;66.10;100491.38;5097230;28;8872;-58
2023/10/08 01:13:36;;;;;;;;;7.00;6.00;;;;;18.77;65.98;100497.81;5096454;28;8834;-58
2023/10/08 01:16:04;;;;;;;;;4.00;3.80;;;;;18.76;66.29;100498.78;5096876;28;8834;-58
2023/10/08 01:18:34;;;;;;;;;5.60;5.20;;;;;18.76;66.07;100498.78;5106494;28;8808;-58
2023/10/08 01:21:08;;;;;;;;;4.00;4.00;;;;;18.76;66.61;100492.56;5103849;28;8830;-58
2023/10/08 01:23:38;;;;;;;;;4.00;4.00;;;;;18.76;66.18;100501.47;5107112;28;8907;-59
2023/10/08 01:26:11;;;;;;;;;4.00;4.00;;;;;18.78;65.86;100504.03;5096926;28;8818;-58
2023/10/08 01:28:39;;;;;;;;;6.00;6.00;;;;;18.79;65.94;100520.06;5096884;28;8833;-57
2023/10/08 01:31:10;;;;;;;;;9.80;6.80;;;;;18.80;66.19;100521.75;5097502;28;9499;-58
2023/10/08 01:33:38;;;;;;;;;4.40;4.00;;;;;18.82;66.14;100535.09;5096963;28;8895;-58
2023/10/08 01:36:12;;;;;;;;;3.60;3.40;;;;;18.82;66.27;100533.22;5097534;28;8961;-59
2023/10/08 01:38:41;;;;;;;;;3.60;3.60;;;;;18.82;66.50;100538.63;5096907;28;8832;-57
2023/10/08 01:41:18;;;;;;;;;8.20;7.00;;;;;18.83;66.03;100540.31;5096824;28;8956;-58
2023/10/08 01:43:47;;;;;;;;;4.00;3.80;;;;;18.81;66.05;100536.94;5096703;28;8822;-57
2023/10/08 01:46:15;;;;;;;;;6.60;6.00;;;;;18.80;66.18;100529.84;5096476;28;8842;-57
2023/10/08 01:48:44;;;;;;;;;6.40;5.60;;;;;18.78;65.88;100534.56;5096691;28;8822;-58
2023/10/08 01:51:24;;;;;;;;;4.80;4.80;;;;;18.78;65.85;100539.97;5097036;28;8822;-58
2023/10/08 01:53:53;;;;;;;;;6.40;6.20;;;;;18.77;65.82;100532.88;5097046;28;8822;-59
2023/10/08 01:56:21;;;;;;;;;4.00;3.00;;;;;18.75;66.02;100525.94;5096615;28;8849;-58
2023/10/08 01:58:49;;;;;;;;;7.40;6.60;;;;;18.75;66.31;100529.47;5096559;28;8944;-57
2023/10/08 02:01:17;;;;;;;;;5.60;4.80;;;;;18.74;65.93;100521.56;5096013;28;8826;-58
2023/10/08 02:03:44;;;;;;;;;4.20;4.20;;;;;18.73;65.78;100536.06;5095920;28;8873;-59
2023/10/08 02:06:12;;;;;;;;;6.60;6.40;;;;;18.73;66.36;100536.06;5097321;28;8818;-58
2023/10/08 02:08:40;;;;;;;;;4.00;4.00;;;;;18.72;66.07;100532.50;5096630;28;9515;-57
2023/10/08 02:11:08;;;;;;;;;6.00;5.20;;;;;18.72;66.14;100539.75;5096112;28;8866;-57
2023/10/08 02:13:36;;;;;;;;;4.00;4.00;;;;;18.69;66.48;100543.63;5095626;28;8837;-58
2023/10/08 02:16:04;;;;;;;;;9.00;9.00;;;;;18.70;66.58;100541.75;5096209;28;8817;-58
2023/10/08 02:18:32;;;;;;;;;6.20;6.00;;;;;18.69;66.28;100535.53;5094943;28;8829;-59
2023/10/08 02:21:00;;;;;;;;;6.40;6.40;;;;;18.67;66.26;100526.72;5097493;28;8813;-58
2023/10/08 02:23:29;;;;;;;;;7.80;7.00;;;;;18.68;65.97;100514.09;5100041;28;8826;-58
2023/10/08 02:25:57;;;;;;;;;9.60;8.40;;;;;18.66;66.11;100527.75;5107814;28;8930;-58
2023/10/08 02:28:25;;;;;;;;;6.00;4.40;;;;;18.64;66.37;100520.81;5095849;28;8845;-58
2023/10/08 02:30:53;;;;;;;;;6.60;6.00;;;;;18.62;66.05;100518.28;5096038;28;8813;-57
2023/10/08 02:33:20;;;;;;;;;6.00;6.00;;;;;18.61;66.54;100529.22;5095957;28;8841;-57
2023/10/08 02:35:49;;;;;;;;;12.00;7.40;;;;;18.58;66.70;100484.53;5095939;28;8826;-58
2023/10/08 02:38:17;;;;;;;;;12.00;9.80;;;;;18.56;66.63;100466.78;5096065;28;8817;-57
2023/10/08 02:40:46;;;;;;;;;3.80;3.40;;;;;18.51;67.00;100455.66;5095544;28;8833;-58
2023/10/08 02:43:15;;;;;;;;;10.80;6.60;;;;;18.45;66.88;100445.50;5085359;28;9577;-60
2023/10/08 02:45:47;;;;;;;;;8.20;6.60;;;;;18.40;66.96;100459.47;5076254;28;8845;-60
2023/10/08 02:48:17;;;;;;;;;4.40;4.40;;;;;18.36;67.39;100438.38;5074934;28;8840;-59
2023/10/08 02:50:46;;;;;;;;;4.40;3.60;;;;;18.31;67.27;100408.34;5075489;28;8964;-60
2023/10/08 02:53:17;;;;;;;;;7.40;6.00;;;;;18.25;67.60;100425.97;5075523;28;8850;-60
2023/10/08 02:55:46;;;;;;;;;6.00;6.00;;;;;18.22;67.97;100449.72;5075001;28;8874;-58
2023/10/08 02:58:15;;;;;;;;;7.80;7.00;;;;;18.21;67.68;100461.50;5075414;28;8844;-60
2023/10/08 03:00:43;;;;;;;;;6.00;4.40;;;;;18.22;67.37;100480.19;5075480;28;8913;-60
2023/10/08 03:03:15;;;;;;;;;6.80;5.60;;;;;18.23;67.41;100508.84;5075371;28;8975;-57
2023/10/08 03:05:43;;;;;;;;;6.40;6.40;;;;;18.24;67.63;100518.66;5075380;28;8812;-59
2023/10/08 03:08:11;;;;;;;;;8.20;8.20;;;;;18.25;67.79;100504.16;5075051;28;8832;-59
2023/10/08 03:10:40;;;;;;;;;9.20;6.20;;;;;18.26;67.49;100481.59;5074759;28;8828;-60
2023/10/08 03:13:09;;;;;;;;;6.20;6.00;;;;;18.27;67.66;100496.75;5075198;28;8824;-58
2023/10/08 03:15:41;;;;;;;;;6.60;6.60;;;;;18.27;67.38;100493.19;5075151;28;8970;-58
2023/10/08 03:18:14;;;;;;;;;4.40;3.60;;;;;18.26;67.17;100530.13;5075054;28;8820;-60
2023/10/08 03:20:45;;;;;;;;;6.80;6.00;;;;;18.26;67.47;100538.22;5093024;28;8832;-60
2023/10/08 03:23:22;;;;;;;;;4.40;4.00;;;;;18.26;67.20;100553.53;5095365;28;8830;-57
2023/10/08 03:25:50;;;;;;;;;6.00;6.00;;;;;18.26;67.73;100557.09;5075971;28;8957;-60
2023/10/08 03:28:24;;;;;;;;;6.20;6.20;;;;;18.24;67.22;100556.41;5054948;28;8836;-57
2023/10/08 03:30:56;;;;;;;;;9.00;8.60;;;;;18.24;67.52;100560.94;5054946;28;8911;-59
2023/10/08 03:33:26;;;;;;;;;9.00;7.00;;;;;18.22;67.55;100547.59;5073576;28;8848;-59
2023/10/08 03:35:55;;;;;;;;;6.00;6.00;;;;;18.21;67.25;100554.00;5074127;28;8846;-59
2023/10/08 03:38:28;;;;;;;;;9.00;8.20;;;;;18.19;67.38;100542.53;5055636;28;8812;-59
2023/10/08 03:41:06;;;;;;;;;6.20;6.20;;;;;18.18;67.81;100550.78;5068815;28;8880;-58
2023/10/08 03:43:46;;;;;;;;;5.20;5.20;;;;;18.18;67.34;100545.38;5082463;28;8836;-60
2023/10/08 03:46:16;;;;;;;;;7.00;7.00;;;;;18.16;67.87;100547.38;5112741;28;8934;-57
2023/10/08 03:48:45;;;;;;;;;4.80;4.80;;;;;18.14;67.79;100517.88;5094055;28;8830;-60
2023/10/08 03:51:13;;;;;;;;;7.00;6.80;;;;;18.13;67.47;100515.34;5093098;28;8846;-57
2023/10/08 03:53:57;;;;;;;;;3.80;3.00;;;;;18.07;68.05;100502.50;5101135;28;8803;-60
2023/10/08 03:56:25;;;;;;;;;7.80;7.40;;;;;18.00;68.03;100541.84;5094104;28;9495;-58
2023/10/08 03:58:54;;;;;;;;;10.00;9.60;;;;;17.96;68.20;100526.97;5093930;28;8825;-60
2023/10/08 04:01:24;;;;;;;;;8.00;6.40;;;;;17.92;68.31;100539.91;5094102;28;8871;-60
2023/10/08 04:04:01;;;;;;;;;2.60;2.60;;;;;17.91;68.09;100538.22;5094670;28;8857;-58
2023/10/08 04:06:38;;;;;;;;;6.80;6.40;;;;;17.91;68.32;100513.13;5094067;28;8910;-58
2023/10/08 04:11:55;;;;;;;;;6.00;5.20;;;;;17.84;68.62;100472.47;5073337;28;8836;-58
2023/10/08 04:14:27;;;;;;;;;6.00;4.40;;;;;17.82;68.27;100496.03;5074076;28;8851;-58
2023/10/08 04:16:55;;;;;;;;;6.00;6.00;;;;;17.80;68.71;100526.81;5074422;28;8824;-58
2023/10/08 04:19:26;;;;;;;;;7.20;6.80;;;;;17.77;68.50;100536.06;5074635;28;8824;-59
2023/10/08 04:21:55;;;;;;;;;7.40;6.00;;;;;17.78;68.22;100550.41;5074336;28;8978;-60
2023/10/08 04:24:28;;;;;;;;;7.00;6.60;;;;;17.78;68.57;100545.00;5074324;28;8844;-60
2023/10/08 04:26:56;;;;;;;;;3.20;3.20;;;;;17.79;68.43;100558.34;5074443;28;8936;-60
2023/10/08 04:29:24;;;;;;;;;10.00;8.20;;;;;17.79;68.60;100550.25;5074310;28;8852;-60
2023/10/08 04:32:01;;;;;;;;;4.40;4.40;;;;;17.79;68.43;100555.63;5074199;28;8930;-59
2023/10/08 04:34:29;;;;;;;;;6.20;5.20;;;;;17.79;68.69;100555.63;5074455;28;8840;-57
2023/10/08 04:37:00;;;;;;;;;9.40;9.00;;;;;17.79;68.71;100562.88;5074040;28;8859;-57
2023/10/08 04:39:32;;;;;;;;;3.40;3.40;;;;;17.78;68.59;100559.31;5074002;28;8819;-59
2023/10/08 04:42:06;;;;;;;;;4.80;4.40;;;;;17.78;68.81;100548.53;5076159;28;8851;-59
2023/10/08 04:44:33;;;;;;;;;4.00;4.00;;;;;17.78;68.80;100547.69;5077818;28;8816;-57
2023/10/08 04:47:06;;;;;;;;;6.40;5.60;;;;;17.76;68.59;100566.69;5088105;28;8910;-60
2023/10/08 04:49:37;;;;;;;;;6.80;6.00;;;;;17.76;68.58;100577.47;5098042;28;8853;-59
2023/10/08 04:52:09;;;;;;;;;10.20;8.80;;;;;17.73;68.35;100561.63;5102911;28;8820;-58
2023/10/08 04:54:40;;;;;;;;;9.80;8.60;;;;;17.72;68.54;100568.03;5104876;28;8830;-58
2023/10/08 04:57:14;;;;;;;;;6.20;6.20;;;;;17.71;68.85;100546.63;5102717;28;8839;-58
2023/10/08 04:59:43;;;;;;;;;6.00;3.20;;;;;17.69;68.95;100538.69;5104282;28;8824;-57
2023/10/08 05:02:14;;;;;;;;;6.00;6.00;;;;;17.66;69.01;100552.47;5097258;28;8854;-57
2023/10/08 05:04:55;;;;;;;;;5.20;5.20;;;;;17.64;68.59;100545.53;5097977;28;8842;-58
2023/10/08 05:07:40;;;;;;;;;7.20;6.00;;;;;17.60;69.39;100526.13;5097554;28;8829;-59
2023/10/08 05:13:15;;;;;;;;;8.60;8.60;;;;;17.48;68.86;100559.66;5097521;28;8837;-58
2023/10/08 05:15:50;;;;;;;;;6.80;5.60;;;;;17.47;69.30;100600.22;5097192;28;8807;-57
2023/10/08 05:18:23;;;;;;;;;6.80;4.80;;;;;17.47;69.26;100619.91;5097367;28;8848;-58
2023/10/08 05:20:59;;;;;;;;;3.80;3.80;;;;;17.48;68.85;100626.16;5096666;28;8822;-59
2023/10/08 05:26:21;;;;;;;;;7.40;6.80;;;;;17.48;69.03;100624.28;5097187;28;8971;-57
2023/10/08 05:29:00;;;;;;;;;6.00;4.40;;;;;17.47;69.39;100622.59;5097104;28;8846;-58
2023/10/08 05:31:46;;;;;;;;;7.00;6.00;;;;;17.47;69.22;100624.44;5096708;28;8834;-57
2023/10/08 05:34:32;;;;;;;;;7.00;6.20;;;;;17.47;69.21;100622.59;5096867;28;8872;-58
2023/10/08 05:37:31;;;;;;;;;7.00;6.20;;;;;17.44;68.83;100627.44;5097019;28;8849;-58
2023/10/08 05:40:11;;;;;;;;;7.00;6.80;;;;;17.43;69.58;100623.91;5096647;28;8865;-59
2023/10/08 05:42:46;;;;;;;;;9.00;9.00;;;;;17.39;69.14;100622.50;5096941;28;8866;-57
2023/10/08 05:45:14;;;;;;;;;7.00;7.00;;;;;17.35;69.20;100615.69;5096684;28;8842;-60
2023/10/08 05:48:06;;;;;;;;;8.20;8.20;;;;;17.31;69.32;100614.28;5097002;28;8826;-58
2023/10/08 05:50:38;;;;;;;;;6.60;6.60;;;;;17.25;69.64;100611.34;5096581;28;8956;-60
2023/10/08 05:53:19;;;;;;;;;7.60;6.80;;;;;17.19;69.75;100601.16;5095963;28;8829;-59
2023/10/08 05:55:47;;;;;;;;;9.80;9.20;;;;;17.15;69.63;100581.75;5096069;28;8956;-57
2023/10/08 05:58:24;;;;;;;;;4.80;4.00;;;;;17.14;69.51;100579.19;5112938;28;9496;-57
2023/10/08 06:01:09;;;;;;;;;5.20;3.60;;;;;17.12;69.69;100576.69;5102462;28;8829;-58
2023/10/08 06:03:46;;;;;;;;;9.60;9.00;;;;;17.12;69.96;100581.19;5095985;28;8856;-58
2023/10/08 06:09:21;;;;;;;;;6.80;4.40;;;;;17.11;70.52;100612.66;5082531;28;8861;-57
2023/10/08 06:12:06;;;;;;;;;6.40;6.00;;;;;17.14;69.78;100620.44;5094106;28;8830;-57
2023/10/08 06:14:52;;;;;;;;;5.40;4.80;;;;;17.14;69.94;100606.13;5095192;28;8849;-59
2023/10/08 06:17:23;;;;;;;;;6.00;6.00;;;;;17.15;69.52;100603.28;5095870;28;9537;-60
2023/10/08 06:19:52;;;;;;;;;10.00;9.00;;;;;17.18;69.96;100586.00;5095538;28;8863;-57
2023/10/08 06:22:19;;;;;;;;;11.60;11.20;;;;;17.20;69.73;100619.00;5095871;28;8861;-59
2023/10/08 06:24:47;;;;;;;;;9.60;9.60;;;;;17.20;69.58;100625.25;5095722;28;8833;-59
2023/10/08 06:27:17;;;;;;;;;8.20;7.00;;;;;17.20;69.69;100644.09;5095536;28;8841;-60
2023/10/08 06:29:45;;;;;;;;;7.00;7.00;;;;;17.19;69.46;100668.44;5095913;28;9614;-60
2023/10/08 06:32:12;;;;;;;;;8.60;7.80;;;;;17.17;69.58;100660.50;5095570;28;8963;-59
2023/10/08 06:34:40;;;;;;;;;7.80;6.60;;;;;17.17;69.56;100681.22;5095768;28;9550;-59
2023/10/08 06:37:08;;;;;;;;;7.80;7.00;;;;;17.17;69.68;100682.03;5095246;28;8909;-59
2023/10/08 06:39:47;;;;;;;;;4.40;4.00;;;;;17.16;70.22;100680.34;5095365;28;8818;-59
2023/10/08 06:42:15;;;;;;;;;6.00;6.00;;;;;17.16;70.18;100690.28;5095495;28;9164;-57
2023/10/08 06:44:46;;;;;;;;;6.00;6.00;;;;;17.15;70.38;100692.13;5095491;28;8826;-60
2023/10/08 06:47:15;;;;;;;;;7.80;6.60;;;;;17.14;70.07;100693.13;5095296;28;8826;-56
2023/10/08 06:49:46;;;;;;;;;7.40;7.40;;;;;17.13;70.32;100688.72;5095418;28;8935;-58
2023/10/08 06:52:14;;;;;;;;;8.20;6.20;;;;;17.13;69.83;100686.03;5096001;28;8880;-57
2023/10/08 06:54:42;;;;;;;;;6.00;6.00;;;;;17.12;70.02;100695.13;5090578;28;8829;-57
2023/10/08 06:57:13;;;;;;;;;10.00;7.00;;;;;17.11;70.56;100720.34;5074237;28;8840;-56
2023/10/08 06:59:43;;;;;;;;;9.40;8.20;;;;;17.09;70.28;100714.22;5074902;28;8824;-58
2023/10/08 07:02:15;;;;;;;;;6.40;5.20;;;;;17.07;70.18;100718.06;5058438;28;8822;-60
2023/10/08 07:04:47;;;;;;;;;7.80;7.00;;;;;17.02;69.92;100726.56;5072416;28;8867;-58
2023/10/08 07:07:18;;;;;;;;;5.00;3.80;;;;;16.90;70.24;100702.66;5074520;28;8936;-57
2023/10/08 07:09:46;;;;;;;;;1.40;1.00;;;;;16.78;70.92;100739.63;5072866;28;8904;-57
2023/10/08 07:12:14;;;;;;;;;5.60;4.00;;;;;16.66;71.20;100756.91;5066528;28;8811;-58
2023/10/08 07:14:42;;;;;;;;;2.20;2.20;;;;;16.52;71.11;100762.69;5054603;28;8823;-58
2023/10/08 07:17:19;;;;;;;;;6.40;3.00;;;;;16.39;71.39;100759.41;5062411;28;8804;-57
2023/10/08 07:19:50;;;;;;;;;2.20;2.20;;;;;16.30;71.58;100760.22;5073744;28;9601;-57
2023/10/08 07:22:28;;;;;;;;;4.80;4.00;;;;;16.19;72.23;100751.41;5061768;28;8808;-56
2023/10/08 07:24:57;;;;;;;;;3.00;3.00;;;;;16.12;72.28;100768.22;5053382;28;9803;-59
2023/10/08 07:27:30;;;;;;;;;5.80;5.80;;;;;16.08;72.46;100774.84;5068698;28;8812;-58
2023/10/08 07:30:01;;;;;;;;;6.60;6.00;;;;;16.04;72.41;100778.78;5076269;28;8873;-57
2023/10/08 07:32:30;;;;;;;;;5.80;5.80;;;;;15.99;72.60;100776.50;5093963;28;8899;-59
2023/10/08 07:35:14;;;;;;;;;4.00;3.80;;;;;15.95;72.70;100774.25;5080232;28;8836;-58
2023/10/08 07:37:44;;;;;;;;;1.00;1.00;;;;;15.90;72.29;100779.16;5074537;28;8835;-56
2023/10/08 07:40:13;;;;;;;;;13.20;9.40;;;;;15.84;72.83;100775.19;5083205;28;8834;-61
2023/10/08 07:42:40;;;;;;;;;3.60;3.00;;;;;15.81;72.81;100788.03;5094410;28;8834;-59
2023/10/08 07:45:08;;;;;;;;;3.00;2.60;;;;;15.76;72.75;100788.44;5095393;28;8852;-56
2023/10/08 07:47:36;;;;;;;;;0.40;0.40;;;;;15.72;72.66;100788.84;5093897;28;8874;-57
2023/10/08 07:50:11;;;;;;;;;1.40;1.00;;;;;15.68;72.74;100793.63;5094186;28;8829;-59
2023/10/08 07:52:42;;;;;;;;;1.00;0.00;;;;;15.64;73.39;100786.81;5094539;28;8836;-58
2023/10/08 07:55:10;;;;;;;;;2.60;1.40;;;;;15.59;73.16;100761.34;5094502;28;8856;-57
2023/10/08 07:57:38;;;;;;;;;0.60;0.60;;;;;15.51;73.30;100774.59;5094408;28;8848;-58
2023/10/08 08:00:18;;;;;;;;;1.00;1.00;;;;;15.42;73.11;100787.00;5094646;28;8837;-59
2023/10/08 08:02:46;;;;;;;;;0.00;0.00;;;;;15.35;73.38;100791.19;5094159;28;8855;-58
2023/10/08 08:05:17;;;;;;;;;0.20;0.20;;;;;15.32;72.91;100782.53;5094532;28;8910;-57
2023/10/08 08:07:46;;;;;;;;;0.00;0.00;;;;;15.33;73.52;100786.91;5094086;28;8829;-57
2023/10/08 08:10:14;;;;;;;;;0.00;0.00;;;;;15.30;73.53;100787.13;5094450;28;8961;-57
2023/10/08 08:12:42;;;;;;;;;0.00;0.00;;;;;15.30;73.58;100797.88;5094119;28;8963;-57
2023/10/08 08:15:16;;;;;;;;;0.00;0.00;;;;;15.29;73.45;100796.16;5095584;28;8836;-58
2023/10/08 08:17:44;;;;;;;;;0.00;0.00;;;;;15.25;73.54;100802.78;5098204;28;9550;-56
2023/10/08 08:20:18;;;;;;;;;0.00;0.00;;;;;15.23;73.69;100810.97;5097838;28;8857;-59
2023/10/08 08:22:49;;;;;;;;;0.00;0.00;;;;;15.22;73.74;100817.31;5097932;28;8806;-60
2023/10/08 08:25:26;;;;;;;;;0.00;0.00;;;;;15.19;73.69;100819.41;5098162;28;8854;-58
2023/10/08 08:27:54;;;;;;;;;0.00;0.00;;;;;15.17;73.61;100834.78;5100274;28;8842;-58
2023/10/08 08:30:26;;;;;;;;;0.00;0.00;;;;;15.15;73.25;100836.72;5112042;28;8858;-57
2023/10/08 08:32:58;;;;;;;;;0.00;0.00;;;;;15.14;73.50;100840.41;5098597;28;8814;-57
2023/10/08 08:35:26;;;;;;;;;0.00;0.00;;;;;15.13;73.57;100838.69;5098424;28;8875;-56
2023/10/08 08:37:54;;;;;;;;;0.00;0.00;;;;;15.13;73.75;100838.69;5097839;28;8845;-56
2023/10/08 08:40:22;;;;;;;;;0.00;0.00;;;;;15.11;73.61;100828.09;5097744;28;8830;-59
2023/10/08 08:42:50;;;;;;;;;0.00;0.00;;;;;15.14;73.18;100832.34;5097626;28;8826;-59
2023/10/08 08:45:18;;;;;;;;;0.00;0.00;;;;;15.12;73.52;100837.00;5097720;28;8826;-57
2023/10/08 08:47:45;;;;;;;;;0.00;0.00;;;;;15.08;73.70;100839.09;5097589;28;8841;-59
2023/10/08 08:50:13;;;;;;;;;0.00;0.00;;;;;15.04;73.27;100844.84;5097642;28;8861;-57
2023/10/08 08:52:41;;;;;;;;;0.00;0.00;;;;;15.01;73.74;100845.13;5097302;28;9593;-56
2023/10/08 08:55:14;;;;;;;;;0.00;0.00;;;;;15.01;73.87;100839.75;5096810;28;8929;-58
2023/10/08 08:57:43;;;;;;;;;0.00;0.00;;;;;15.02;73.79;100850.34;5097275;28;8845;-57
2023/10/08 09:00:11;;;;;;;;;0.00;0.00;;;;;14.99;73.66;100863.16;5096135;28;8853;-58
2023/10/08 09:02:39;;;;;;;;;0.00;0.00;;;;;14.93;73.58;100852.91;5096377;28;8830;-59
2023/10/08 09:05:23;;;;;;;;;0.00;0.00;;;;;14.89;73.68;100859.53;5097318;28;8840;-57
2023/10/08 09:07:51;;;;;;;;;0.00;0.00;;;;;14.86;74.08;100867.84;5097499;28;8959;-57
2023/10/08 09:10:25;;;;;;;;;0.00;0.00;;;;;14.86;73.73;100857.13;5097187;28;8926;-57
2023/10/08 09:12:53;;;;;;;;;0.00;0.00;;;;;14.86;73.60;100851.75;5097242;28;9545;-58
2023/10/08 09:15:22;;;;;;;;;0.00;0.00;;;;;14.89;73.88;100852.34;5095616;28;8836;-57
2023/10/08 09:17:51;;;;;;;;;0.00;0.00;;;;;14.90;73.58;100864.78;5096924;28;8825;-57
2023/10/08 09:20:20;;;;;;;;;0.00;0.00;;;;;14.92;73.51;100878.03;5096944;28;8864;-57
2023/10/08 09:22:48;;;;;;;;;0.00;0.00;;;;;14.91;73.84;100873.66;5096841;28;8906;-59
2023/10/08 09:25:16;;;;;;;;;0.20;0.00;;;;;14.92;73.35;100886.09;5096503;28;8806;-56
2023/10/08 09:27:46;;;;;;;;;0.00;0.00;;;;;14.91;73.20;100898.66;5095491;28;8834;-58
2023/10/08 09:30:18;;;;;;;;;0.00;0.00;;;;;14.91;73.50;100903.16;5096526;28;9495;-56
2023/10/08 09:32:46;;;;;;;;;0.00;0.00;;;;;14.90;73.17;100902.34;5097535;28;8832;-58
2023/10/08 09:35:14;;;;;;;;;0.00;0.00;;;;;14.93;73.17;100903.88;5103310;28;8840;-59
2023/10/08 09:37:42;;;;;;;;;0.00;0.00;;;;;14.93;73.03;100906.56;5096722;28;9732;-58
2023/10/08 09:40:10;;;;;;;;;0.00;0.00;;;;;14.94;72.99;100892.19;5089697;28;9498;-58
2023/10/08 09:42:37;;;;;;;;;0.00;0.00;;;;;14.97;72.86;100892.81;5076421;28;8829;-59
2023/10/08 09:45:08;;;;;;;;;0.00;0.00;;;;;15.01;72.79;100896.91;5076248;28;8840;-58
2023/10/08 09:47:36;;;;;;;;;0.00;0.00;;;;;15.09;73.24;100904.34;5075674;28;8928;-59
2023/10/08 09:50:07;;;;;;;;;0.00;0.00;;;;;15.13;73.32;100897.72;5075141;28;8828;-58
2023/10/08 09:52:35;;;;;;;;;0.00;0.00;;;;;15.19;72.47;100908.81;5084402;28;8865;-58
2023/10/08 09:55:03;;;;;;;;;0.00;0.00;;;;;15.21;72.50;100903.31;5095874;28;8856;-59
2023/10/08 09:57:33;;;;;;;;;0.00;0.00;;;;;15.22;72.71;100903.19;5095815;28;8826;-59
2023/10/08 10:00:01;;;;;;;;;1.00;1.00;;;;;15.28;72.32;100896.44;5096053;28;8826;-57
2023/10/08 10:02:31;;;;;;;;;0.40;0.00;;;;;15.37;72.37;100885.84;5095361;28;8906;-59
2023/10/08 10:05:00;;;;;;;;;0.00;0.00;;;;;15.49;72.08;100879.41;5095540;28;8850;-58
2023/10/08 10:07:29;;;;;;;;;0.00;0.00;;;;;15.60;71.74;100874.00;5095466;28;8949;-59
2023/10/08 10:09:57;;;;;;;;;0.00;0.00;;;;;15.69;71.71;100875.88;5095457;28;8846;-59
2023/10/08 10:12:25;;;;;;;;;0.00;0.00;;;;;15.77;71.29;100876.09;5095638;28;8860;-59
2023/10/08 10:14:55;;;;;;;;;0.00;0.00;;;;;15.91;70.91;100877.59;5095343;28;8850;-56
2023/10/08 10:17:23;;;;;;;;;0.00;0.00;;;;;16.06;70.57;100869.03;5095431;28;8818;-58
2023/10/08 10:20:13;;;;;;;;;0.00;0.00;;;;;16.26;70.34;100879.72;5096040;28;8826;-59
2023/10/08 10:22:43;;;;;;;;;0.00;0.00;;;;;16.44;69.80;100875.47;5095573;28;8846;-59
2023/10/08 10:25:17;;;;;;;;;0.00;0.00;;;;;16.53;69.81;100874.63;5095608;28;8838;-59
2023/10/08 10:27:46;;;;;;;;;0.00;0.00;;;;;16.59;70.12;100886.69;5095591;28;8834;-56
2023/10/08 10:30:18;;;;;;;;;0.00;0.00;;;;;16.58;69.90;100891.22;5077065;28;8826;-59
2023/10/08 10:32:50;;;;;;;;;0.00;0.00;;;;;16.60;69.89;100891.94;5075335;28;9545;-57
2023/10/08 10:35:19;;;;;;;;;0.00;0.00;;;;;16.62;69.92;100894.50;5059042;28;8852;-57
2023/10/08 10:37:51;;;;;;;;;0.20;0.00;;;;;16.61;70.03;100893.63;5060621;28;8829;-59
2023/10/08 10:40:28;;;;;;;;;0.00;0.00;;;;;16.61;70.13;100890.94;5083255;28;8820;-58
2023/10/08 10:42:56;;;;;;;;;0.00;0.00;;;;;16.61;69.89;100892.78;5115828;28;8812;-57
2023/10/08 10:45:40;;;;;;;;;0.00;0.00;;;;;16.61;69.50;100893.63;5105049;28;8825;-59
2023/10/08 10:48:13;;;;;;;;;0.00;0.00;;;;;16.59;69.66;100890.22;5094876;28;8910;-57
2023/10/08 10:51:08;;;;;;;;;0.00;0.00;;;;;16.61;69.99;100900.84;5094498;28;8829;-56
2023/10/08 10:53:44;;;;;;;;;1.00;0.00;;;;;16.56;69.71;100897.72;5095089;28;8842;-59
2023/10/08 10:56:18;;;;;;;;;0.20;0.20;;;;;16.52;69.82;100894.47;5107231;28;8896;-56
2023/10/08 10:58:47;;;;;;;;;0.00;0.00;;;;;16.49;69.98;100900.09;5115301;28;8858;-58
2023/10/08 11:01:23;;;;;;;;;0.00;0.00;;;;;16.49;70.57;100892.03;5110724;28;8865;-58
2023/10/08 11:03:57;;;;;;;;;0.00;0.00;;;;;16.52;70.38;100894.47;5074532;28;8844;-56
2023/10/08 11:06:25;;;;;;;;;0.00;0.00;;;;;16.55;69.84;100886.09;5082742;28;8848;-57
2023/10/08 11:08:53;;;;;;;;;0.00;0.00;;;;;16.59;70.03;100892.06;5095236;28;8829;-57
2023/10/08 11:11:27;;;;;;;;;0.00;0.00;;;;;16.61;70.58;100890.94;5095651;28;8839;-59
2023/10/08 11:13:55;;;;;;;;;0.00;0.00;;;;;16.65;69.98;100875.38;5095211;28;8853;-58
2023/10/08 11:16:23;;;;;;;;;1.60;0.00;;;;;16.73;69.68;100859.41;5095783;28;9518;-58
2023/10/08 11:18:51;;;;;;;;;0.00;0.00;;;;;16.86;69.58;100865.38;5095457;28;8814;-59
2023/10/08 11:21:24;;;;;;;;;0.00;0.00;;;;;17.01;69.22;100859.44;5095350;28;8873;-59
2023/10/08 11:23:58;;;;;;;;;0.00;0.00;;;;;17.14;69.07;100856.47;5094929;28;8852;-58
2023/10/08 11:26:33;;;;;;;;;0.00;0.00;;;;;17.20;68.71;100848.69;5094923;28;8964;-57
2023/10/08 11:29:02;;;;;;;;;0.00;0.00;;;;;17.24;68.29;100850.09;5095054;28;8968;-56
2023/10/08 11:31:33;;;;;;;;;1.20;0.00;;;;;17.27;68.65;100855.22;5094733;28;8822;-56
2023/10/08 11:34:02;;;;;;;;;0.00;0.00;;;;;17.30;68.57;100860.28;5094747;28;8861;-59
2023/10/08 11:36:33;;;;;;;;;0.00;0.00;;;;;17.33;68.98;100859.16;5094031;28;8826;-57
2023/10/08 11:39:04;;;;;;;;;0.00;0.00;;;;;17.36;68.35;100854.38;5093320;28;8826;-59
2023/10/08 11:41:44;;;;;;;;;0.00;0.00;;;;;17.40;68.68;100863.03;5093257;28;8830;-57
2023/10/08 11:44:13;;;;;;;;;0.00;0.00;;;;;17.36;68.65;100858.88;5093669;28;8918;-56
2023/10/08 11:46:44;;;;;;;;;0.00;0.00;;;;;17.35;68.83;100857.16;5093169;28;8845;-56
2023/10/08 11:49:17;;;;;;;;;0.00;0.00;;;;;17.36;68.56;100854.38;5094086;28;8822;-57
2023/10/08 11:51:45;;;;;;;;;0.00;0.00;;;;;17.37;68.70;100858.75;5093466;28;8861;-59
2023/10/08 11:54:14;;;;;;;;;0.00;0.00;;;;;17.41;68.42;100852.13;5094000;28;8833;-57
2023/10/08 11:56:44;;;;;;;;;0.00;0.00;;;;;17.45;68.47;100850.00;5094152;28;8841;-57
2023/10/08 11:59:12;;;;;;;;;0.00;0.00;;;;;17.51;68.41;100842.16;5094167;28;8840;-57
2023/10/08 12:01:43;;;;;;;;;0.00;0.00;;;;;17.60;67.93;100845.84;5109260;28;8896;-59
2023/10/08 12:04:12;;;;;;;;;0.00;0.00;;;;;17.71;68.39;100843.84;5099232;28;8839;-58